Time;durP1;ratioP1;P1;durP2;ratioP2;P2;SDS_P1;SDS_P2;PMS_P1;PMS_P2;Temp;Humidity;BMP_temperature;BMP_pressure;BME280_temperature;BME280_humidity;BME280_pressure;Samples;Min_cycle;Max_cycle;Signal;HPM_P1;HPM_P2
2022/05/31 00:01:27;;;;;;;2.15;0.30;;;;;;;;;;5026359;28;20083;-66
2022/05/31 00:03:53;;;;;;;1.48;0.22;;;;;;;;;;5009798;28;20049;-66
2022/05/31 00:06:20;;;;;;;19.95;2.45;;;;;;;;;;5031095;28;20480;-63
2022/05/31 00:08:47;;;;;;;4.05;0.68;;;;;;;;;;5029219;28;20058;-63
2022/05/31 00:11:14;;;;;;;16.95;1.67;;;;;;;;;;5012685;28;20077;-63
2022/05/31 00:13:41;;;;;;;7.32;1.05;;;;;;;;;;5014231;28;20077;-63
2022/05/31 00:16:07;;;;;;;3.83;0.95;;;;;;;;;;5015111;28;20080;-63
2022/05/31 00:18:34;;;;;;;0.65;0.22;;;;;;;;;;5014754;28;20044;-63
2022/05/31 00:21:00;;;;;;;19.17;2.35;;;;;;;;;;5018943;28;20133;-63
2022/05/31 00:23:27;;;;;;;7.88;1.30;;;;;;;;;;5029879;28;20045;-63
2022/05/31 00:25:53;;;;;;;1.08;0.60;;;;;;;;;;5032883;28;20045;-63
2022/05/31 00:28:20;;;;;;;13.52;1.17;;;;;;;;;;5027455;28;20073;-63
2022/05/31 00:30:46;;;;;;;17.73;1.65;;;;;;;;;;5010966;28;20133;-63
2022/05/31 00:33:13;;;;;;;6.22;0.65;;;;;;;;;;5014937;28;20041;-63
2022/05/31 00:35:43;;;;;;;7.82;0.75;;;;;;;;;;5028238;28;20399;-63
2022/05/31 00:38:10;;;;;;;22.25;2.08;;;;;;;;;;5031929;28;20059;-63
2022/05/31 00:40:37;;;;;;;13.85;1.38;;;;;;;;;;5032202;28;20044;-63
2022/05/31 00:43:06;;;;;;;3.15;0.47;;;;;;;;;;5028280;28;20775;-63
2022/05/31 00:45:52;;;;;;;4.30;0.50;;;;;;;;;;5027098;28;20137;-63
2022/05/31 00:48:20;;;;;;;21.83;2.55;;;;;;;;;;5026355;28;20049;-64
2022/05/31 00:50:49;;;;;;;5.28;0.70;;;;;;;;;;5028267;28;20125;-63
2022/05/31 00:53:25;;;;;;;12.80;1.25;;;;;;;;;;5029737;28;20406;-63
2022/05/31 00:55:52;;;;;;;1.45;0.20;;;;;;;;;;5031849;28;20068;-63
2022/05/31 00:58:29;;;;;;;1.80;0.43;;;;;;;;;;5028051;28;20045;-63
2022/05/31 01:00:57;;;;;;;3.42;0.35;;;;;;;;;;5028306;28;20486;-63
2022/05/31 01:03:24;;;;;;;4.13;0.60;;;;;;;;;;5025383;28;20458;-63
2022/05/31 01:05:51;;;;;;;8.63;1.25;;;;;;;;;;5030360;28;20486;-63
2022/05/31 01:08:17;;;;;;;27.70;2.53;;;;;;;;;;5029347;28;20512;-62
2022/05/31 01:11:04;;;;;;;2.40;0.30;;;;;;;;;;5029168;28;20063;-64
2022/05/31 01:14:06;;;;;;;9.00;1.00;;;;;;;;;;5031429;28;20069;-63
2022/05/31 01:16:53;;;;;;;4.35;1.08;;;;;;;;;;5031593;28;20056;-63
2022/05/31 01:19:56;;;;;;;4.57;2.67;;;;;;;;;;5029026;28;20107;-63
2022/05/31 01:22:29;;;;;;;1.95;0.22;;;;;;;;;;5026410;28;20088;-63
2022/05/31 01:25:01;;;;;;;5.63;0.60;;;;;;;;;;5026451;28;20529;-63
2022/05/31 01:27:46;;;;;;;4.95;0.80;;;;;;;;;;5026572;28;20129;-64
2022/05/31 01:30:13;;;;;;;3.92;0.65;;;;;;;;;;5026173;28;20049;-63
2022/05/31 01:32:43;;;;;;;5.05;0.60;;;;;;;;;;5027241;28;20161;-63
2022/05/31 01:35:14;;;;;;;8.40;1.23;;;;;;;;;;5030060;28;20140;-63
2022/05/31 01:37:46;;;;;;;0.75;0.15;;;;;;;;;;5029684;28;20076;-63
2022/05/31 01:40:17;;;;;;;4.35;0.93;;;;;;;;;;5026229;28;20576;-63
2022/05/31 01:42:44;;;;;;;4.13;1.45;;;;;;;;;;5026144;28;20073;-63
2022/05/31 01:45:16;;;;;;;7.65;0.77;;;;;;;;;;5031487;28;20555;-63
2022/05/31 01:47:42;;;;;;;3.50;0.82;;;;;;;;;;5026681;28;20046;-65
2022/05/31 01:50:11;;;;;;;5.20;0.55;;;;;;;;;;5029962;28;20045;-65
2022/05/31 01:52:38;;;;;;;8.02;0.95;;;;;;;;;;5030865;28;20555;-65
2022/05/31 01:55:05;;;;;;;6.95;0.73;;;;;;;;;;5025726;28;20502;-66
2022/05/31 01:57:32;;;;;;;8.95;1.63;;;;;;;;;;5030186;28;20048;-66
2022/05/31 02:00:04;;;;;;;2.42;0.47;;;;;;;;;;5025974;28;20099;-66
2022/05/31 02:02:39;;;;;;;10.35;0.98;;;;;;;;;;5026690;28;20172;-66
2022/05/31 02:05:06;;;;;;;23.92;2.22;;;;;;;;;;4998942;28;20050;-66
2022/05/31 02:07:33;;;;;;;2.50;0.43;;;;;;;;;;5030720;28;20053;-66
2022/05/31 02:10:00;;;;;;;1.48;0.20;;;;;;;;;;5028154;28;20046;-66
2022/05/31 02:12:38;;;;;;;6.15;1.80;;;;;;;;;;5026203;28;20164;-66
2022/05/31 02:15:24;;;;;;;12.85;3.25;;;;;;;;;;5027477;28;20172;-65
2022/05/31 02:18:16;;;;;;;4.18;0.85;;;;;;;;;;5005305;28;20046;-66
2022/05/31 02:21:20;;;;;;;7.68;1.20;;;;;;;;;;5005178;28;20057;-66
2022/05/31 02:23:48;;;;;;;3.38;0.50;;;;;;;;;;4988861;28;20061;-66
2022/05/31 02:26:15;;;;;;;11.45;1.17;;;;;;;;;;4991949;28;20065;-65
2022/05/31 02:28:41;;;;;;;4.13;0.43;;;;;;;;;;4990423;28;20117;-66
2022/05/31 02:31:08;;;;;;;9.55;0.98;;;;;;;;;;4992044;28;20077;-66
2022/05/31 02:33:34;;;;;;;2.45;0.40;;;;;;;;;;4987830;28;20169;-66
2022/05/31 02:36:01;;;;;;;1.20;0.15;;;;;;;;;;5005114;28;20549;-66
2022/05/31 02:38:27;;;;;;;9.35;0.90;;;;;;;;;;4990160;28;20061;-66
2022/05/31 02:40:54;;;;;;;2.30;0.43;;;;;;;;;;4992418;28;20108;-65
2022/05/31 02:43:21;;;;;;;5.90;0.73;;;;;;;;;;4988453;28;20050;-66
2022/05/31 02:45:47;;;;;;;17.23;2.05;;;;;;;;;;4988108;28;20541;-66
2022/05/31 02:48:14;;;;;;;4.55;0.68;;;;;;;;;;4976113;28;20037;-66
2022/05/31 02:50:40;;;;;;;5.38;0.73;;;;;;;;;;5004813;28;20056;-66
2022/05/31 02:53:07;;;;;;;0.93;0.20;;;;;;;;;;4993428;28;20084;-66
2022/05/31 02:55:34;;;;;;;9.60;1.35;;;;;;;;;;5008167;28;20045;-66
2022/05/31 02:58:32;;;;;;;18.10;1.65;;;;;;;;;;5026583;28;20104;-66
2022/05/31 03:01:38;;;;;;;8.07;0.82;;;;;;;;;;5033422;28;20055;-66
2022/05/31 03:04:34;;;;;;;6.13;1.27;;;;;;;;;;5067743;28;20048;-66
2022/05/31 03:07:20;;;;;;;3.78;0.70;;;;;;;;;;5067538;28;20513;-66
2022/05/31 03:10:06;;;;;;;6.28;2.42;;;;;;;;;;5047723;28;20040;-66
2022/05/31 03:12:33;;;;;;;3.70;1.55;;;;;;;;;;5059199;28;20037;-66
2022/05/31 03:15:07;;;;;;;43.33;4.07;;;;;;;;;;5050518;28;20098;-66
2022/05/31 03:17:36;;;;;;;11.18;1.23;;;;;;;;;;5068495;28;20041;-66
2022/05/31 03:20:03;;;;;;;8.02;1.75;;;;;;;;;;5071923;28;20206;-66
2022/05/31 03:22:32;;;;;;;7.30;1.70;;;;;;;;;;5067361;28;20109;-66
2022/05/31 03:25:06;;;;;;;6.97;0.75;;;;;;;;;;5067561;28;20048;-66
2022/05/31 03:27:32;;;;;;;5.47;0.60;;;;;;;;;;5067447;28;20076;-66
2022/05/31 03:30:00;;;;;;;7.18;0.75;;;;;;;;;;5066989;28;20116;-66
2022/05/31 03:32:27;;;;;;;29.90;3.17;;;;;;;;;;5052029;28;20195;-64
2022/05/31 03:34:54;;;;;;;2.10;0.32;;;;;;;;;;5053963;28;20468;-64
2022/05/31 03:37:20;;;;;;;8.57;1.10;;;;;;;;;;5050418;28;20499;-66
2022/05/31 03:39:47;;;;;;;1.80;0.30;;;;;;;;;;5050500;28;20036;-66
2022/05/31 03:42:13;;;;;;;4.93;0.68;;;;;;;;;;5013176;28;20588;-66
2022/05/31 03:44:40;;;;;;;8.68;2.80;;;;;;;;;;5028175;28;20084;-66
2022/05/31 03:47:43;;;;;;;1.45;0.17;;;;;;;;;;5031038;28;20555;-66
2022/05/31 03:50:39;;;;;;;9.07;1.00;;;;;;;;;;5024466;28;20073;-66
2022/05/31 03:53:10;;;;;;;6.47;0.73;;;;;;;;;;5032772;28;20049;-66
2022/05/31 03:55:38;;;;;;;8.93;1.27;;;;;;;;;;5029074;28;20136;-66
2022/05/31 03:58:05;;;;;;;4.38;0.55;;;;;;;;;;5024605;28;20410;-66
2022/05/31 04:00:46;;;;;;;12.48;2.17;;;;;;;;;;5025043;28;20156;-66
2022/05/31 04:03:20;;;;;;;9.98;1.30;;;;;;;;;;5025224;28;20041;-64
2022/05/31 04:05:49;;;;;;;9.18;1.17;;;;;;;;;;5027894;28;20053;-64
2022/05/31 04:08:16;;;;;;;18.20;2.13;;;;;;;;;;5031269;28;20096;-64
2022/05/31 04:10:43;;;;;;;4.88;1.55;;;;;;;;;;5030237;28;20128;-64
2022/05/31 04:13:10;;;;;;;7.93;1.25;;;;;;;;;;5028864;28;20055;-64
2022/05/31 04:16:13;;;;;;;6.88;0.90;;;;;;;;;;5026731;28;20045;-64
2022/05/31 04:18:55;;;;;;;3.55;0.70;;;;;;;;;;5009709;28;20144;-64
2022/05/31 04:21:21;;;;;;;2.53;0.55;;;;;;;;;;5010188;28;20092;-64
2022/05/31 04:23:58;;;;;;;10.73;1.33;;;;;;;;;;5029078;28;20436;-64
2022/05/31 04:26:38;;;;;;;22.92;2.67;;;;;;;;;;5027027;28;20119;-64
2022/05/31 04:29:23;;;;;;;15.02;2.15;;;;;;;;;;5015181;28;20056;-64
2022/05/31 04:32:03;;;;;;;2.13;0.43;;;;;;;;;;5030792;28;20073;-64
2022/05/31 04:34:43;;;;;;;24.25;3.13;;;;;;;;;;5017132;28;20132;-64
2022/05/31 04:37:10;;;;;;;4.85;0.82;;;;;;;;;;5017846;28;20044;-64
2022/05/31 04:40:06;;;;;;;5.97;1.40;;;;;;;;;;4986696;28;20065;-64
2022/05/31 04:42:54;;;;;;;9.55;1.63;;;;;;;;;;4966681;28;20522;-64
2022/05/31 04:45:39;;;;;;;14.00;2.00;;;;;;;;;;4962660;28;20069;-64
2022/05/31 04:48:28;;;;;;;8.93;1.75;;;;;;;;;;4968556;28;20428;-64
2022/05/31 04:50:55;;;;;;;5.65;1.02;;;;;;;;;;4950149;28;20050;-64
2022/05/31 04:53:25;;;;;;;9.95;1.38;;;;;;;;;;4933112;29;20103;-64
2022/05/31 04:56:13;;;;;;;6.93;1.52;;;;;;;;;;4926876;29;20059;-64
2022/05/31 04:58:40;;;;;;;4.40;0.93;;;;;;;;;;4917352;29;20051;-64
2022/05/31 05:01:07;;;;;;;6.82;1.25;;;;;;;;;;4916797;29;20138;-65
2022/05/31 05:03:36;;;;;;;5.65;1.10;;;;;;;;;;4916835;29;20055;-63
2022/05/31 05:06:04;;;;;;;5.70;0.95;;;;;;;;;;4932592;29;20508;-64
2022/05/31 05:08:31;;;;;;;6.88;1.42;;;;;;;;;;4932813;29;20051;-64
2022/05/31 05:11:02;;;;;;;35.33;4.03;;;;;;;;;;4917020;29;20059;-64
2022/05/31 05:13:32;;;;;;;5.07;1.13;;;;;;;;;;4916329;29;20491;-64
2022/05/31 05:16:02;;;;;;;4.22;0.95;;;;;;;;;;4937862;29;20142;-65
2022/05/31 05:18:34;;;;;;;5.38;1.08;;;;;;;;;;4947029;28;20113;-65
2022/05/31 05:21:03;;;;;;;8.40;1.42;;;;;;;;;;5032328;28;20383;-65
2022/05/31 05:23:30;;;;;;;16.88;2.90;;;;;;;;;;5027082;28;20053;-65
2022/05/31 05:25:59;;;;;;;7.13;1.15;;;;;;;;;;5027762;28;20053;-66
2022/05/31 05:31:33;;;;;;;3.25;1.10;;;;;;;;;;5028063;28;20069;-66
2022/05/31 05:34:18;;;;;;;8.13;2.95;;;;;;;;;;5027465;28;20057;-66
2022/05/31 05:36:52;;;;;;;10.35;1.58;;;;;;;;;;5027586;28;20049;-65
2022/05/31 05:39:18;;;;;;;11.02;1.80;;;;;;;;;;5027057;28;20037;-65
2022/05/31 05:42:05;;;;;;;4.00;1.10;;;;;;;;;;5015003;28;20049;-66
2022/05/31 05:44:50;;;;;;;4.43;1.15;;;;;;;;;;5027644;28;20124;-65
2022/05/31 05:47:17;;;;;;;14.85;2.42;;;;;;;;;;5029561;28;20132;-65
2022/05/31 05:49:43;;;;;;;4.00;1.10;;;;;;;;;;5013457;28;20502;-65
2022/05/31 05:52:49;;;;;;;2.95;0.98;;;;;;;;;;5029487;28;20498;-65
2022/05/31 05:55:47;;;;;;;12.73;1.90;;;;;;;;;;5028720;28;20053;-65
2022/05/31 05:58:37;;;;;;;6.43;1.52;;;;;;;;;;5025666;28;20066;-65
2022/05/31 06:01:18;;;;;;;15.10;2.72;;;;;;;;;;5025201;28;20068;-64
2022/05/31 06:03:57;;;;;;;6.60;1.60;;;;;;;;;;5024767;28;20041;-63
2022/05/31 06:06:27;;;;;;;9.63;2.85;;;;;;;;;;5024807;28;20168;-63
2022/05/31 06:08:57;;;;;;;24.45;3.53;;;;;;;;;;5008220;28;20046;-63
2022/05/31 06:11:25;;;;;;;26.92;3.80;;;;;;;;;;5010555;28;20045;-62
2022/05/31 06:13:55;;;;;;;8.07;2.25;;;;;;;;;;5011014;28;20042;-63
2022/05/31 06:16:23;;;;;;;4.97;2.05;;;;;;;;;;5008742;28;20053;-63
2022/05/31 06:19:00;;;;;;;2.75;1.48;;;;;;;;;;4991584;28;20606;-63
2022/05/31 06:21:27;;;;;;;9.25;2.05;;;;;;;;;;5024674;28;20436;-63
2022/05/31 06:24:01;;;;;;;16.23;2.83;;;;;;;;;;4996908;28;20695;-63
2022/05/31 06:26:31;;;;;;;16.25;3.05;;;;;;;;;;5010430;28;20061;-63
2022/05/31 06:29:03;;;;;;;4.68;1.80;;;;;;;;;;5009926;28;20077;-63
2022/05/31 06:31:29;;;;;;;7.10;2.08;;;;;;;;;;5018653;28;20138;-63
2022/05/31 06:33:57;;;;;;;9.90;2.35;;;;;;;;;;5030343;28;20461;-62
2022/05/31 06:36:39;;;;;;;10.88;2.67;;;;;;;;;;5029118;28;20041;-63
2022/05/31 06:39:07;;;;;;;3.83;1.42;;;;;;;;;;5029524;28;20038;-63
2022/05/31 06:41:33;;;;;;;9.57;2.70;;;;;;;;;;5031988;28;20132;-63
2022/05/31 06:44:20;;;;;;;14.60;2.80;;;;;;;;;;5052523;28;20045;-62
2022/05/31 06:47:15;;;;;;;5.57;1.85;;;;;;;;;;5071581;28;20067;-62
2022/05/31 06:50:20;;;;;;;13.80;2.45;;;;;;;;;;5010225;28;20069;-63
2022/05/31 06:58:59;;;;;;;6.50;1.98;;;;;;;;;;4994562;28;20101;-62
2022/05/31 07:01:35;;;;;;;7.32;1.92;;;;;;;;;;4991011;28;20101;-63
2022/05/31 07:04:01;;;;;;;12.38;3.10;;;;;;;;;;5007064;28;20054;-62
2022/05/31 07:06:28;;;;;;;6.55;1.52;;;;;;;;;;5006088;28;20058;-62
2022/05/31 07:09:14;;;;;;;3.05;1.65;;;;;;;;;;4996823;28;20058;-62
2022/05/31 07:11:41;;;;;;;6.82;1.50;;;;;;;;;;4996710;28;20124;-62
2022/05/31 07:14:27;;;;;;;12.05;2.17;;;;;;;;;;5012508;28;20073;-62
2022/05/31 07:17:25;;;;;;;21.73;2.83;;;;;;;;;;5009803;28;20125;-62
2022/05/31 07:19:56;;;;;;;1.30;0.93;;;;;;;;;;4996563;28;20285;-62
2022/05/31 07:22:39;;;;;;;8.80;1.83;;;;;;;;;;5035087;28;20053;-62
2022/05/31 07:25:21;;;;;;;2.60;1.48;;;;;;;;;;5028883;28;20553;-62
2022/05/31 07:27:54;;;;;;;4.18;1.60;;;;;;;;;;5028924;28;20041;-62
2022/05/31 07:30:21;;;;;;;4.05;1.58;;;;;;;;;;5025959;28;20509;-62
2022/05/31 07:32:49;;;;;;;3.47;1.95;;;;;;;;;;5031555;28;20049;-62
2022/05/31 07:35:38;;;;;;;10.82;2.40;;;;;;;;;;5015912;28;20038;-62
2022/05/31 07:38:08;;;;;;;17.90;2.53;;;;;;;;;;5029233;28;20046;-62
2022/05/31 07:40:35;;;;;;;4.07;1.90;;;;;;;;;;5044708;28;20128;-62
2022/05/31 07:43:01;;;;;;;5.00;0.90;;;;;;;;;;5028270;28;20132;-62
2022/05/31 07:45:32;;;;;;;22.52;3.67;;;;;;;;;;5015696;28;20513;-61
2022/05/31 07:47:59;;;;;;;8.73;1.65;;;;;;;;;;5028176;28;20049;-62
2022/05/31 07:50:26;;;;;;;25.30;4.47;;;;;;;;;;5030489;28;20046;-62
2022/05/31 07:53:01;;;;;;;6.50;2.63;;;;;;;;;;5040685;28;20512;-62
2022/05/31 07:55:37;;;;;;;24.38;4.35;;;;;;;;;;5028954;28;20420;-62
2022/05/31 08:01:10;;;;;;;;;;;;;;;;;;5029848;28;20059;-62
2022/05/31 08:03:40;;;;;;;11.30;1.50;;;;;;;;;;5027395;28;20011;-61
2022/05/31 08:06:08;;;;;;;6.88;1.75;;;;;;;;;;5028779;28;20128;-62
2022/05/31 08:08:35;;;;;;;15.45;2.95;;;;;;;;;;5030501;28;20102;-62
2022/05/31 08:11:28;;;;;;;4.55;1.48;;;;;;;;;;5032941;28;20505;-62
2022/05/31 08:13:55;;;;;;;5.82;2.85;;;;;;;;;;5033835;28;20053;-64
2022/05/31 08:16:22;;;;;;;9.27;1.23;;;;;;;;;;5029057;28;20490;-62
2022/05/31 08:18:49;;;;;;;3.03;0.82;;;;;;;;;;5028593;28;20037;-62
2022/05/31 08:21:17;;;;;;;3.85;0.55;;;;;;;;;;5028751;28;20056;-61
2022/05/31 08:23:43;;;;;;;4.93;1.27;;;;;;;;;;5029122;28;20058;-62
2022/05/31 08:26:10;;;;;;;11.15;1.83;;;;;;;;;;5033701;28;20047;-61
2022/05/31 08:28:37;;;;;;;13.50;1.98;;;;;;;;;;5028756;28;20395;-61
2022/05/31 08:31:04;;;;;;;7.22;0.95;;;;;;;;;;5028821;28;20500;-62
2022/05/31 08:33:31;;;;;;;6.28;0.77;;;;;;;;;;5028370;28;20489;-61
2022/05/31 08:35:58;;;;;;;11.23;1.30;;;;;;;;;;5028200;28;20505;-61
2022/05/31 08:38:29;;;;;;;12.73;1.42;;;;;;;;;;5031043;28;20100;-61
2022/05/31 08:40:56;;;;;;;5.60;1.48;;;;;;;;;;5031169;28;20531;-61
2022/05/31 08:43:27;;;;;;;2.00;1.15;;;;;;;;;;5028508;28;20476;-61
2022/05/31 08:45:57;;;;;;;3.72;1.35;;;;;;;;;;5028827;28;20037;-61
2022/05/31 08:48:31;;;;;;;16.95;3.58;;;;;;;;;;5027698;28;20045;-62
2022/05/31 08:57:40;;;;;;;7.88;1.45;;;;;;;;;;5026825;28;20044;-62
2022/05/31 09:00:16;;;;;;;6.80;0.85;;;;;;;;;;5028158;28;20048;-61
2022/05/31 09:02:47;;;;;;;7.18;1.27;;;;;;;;;;5027096;28;20049;-61
2022/05/31 09:05:19;;;;;;;13.75;1.52;;;;;;;;;;5028948;28;20037;-63
2022/05/31 09:07:48;;;;;;;14.45;2.47;;;;;;;;;;5028249;28;20052;-61
2022/05/31 09:10:17;;;;;;;3.47;1.45;;;;;;;;;;5027981;28;20516;-62
2022/05/31 09:12:49;;;;;;;5.63;0.90;;;;;;;;;;5028218;28;20038;-61
2022/05/31 09:15:18;;;;;;;2.38;1.33;;;;;;;;;;5027958;28;20124;-61
2022/05/31 09:18:04;;;;;;;14.90;2.60;;;;;;;;;;5026566;28;20053;-62
2022/05/31 09:20:33;;;;;;;20.92;4.32;;;;;;;;;;5028417;28;20053;-62
2022/05/31 09:23:00;;;;;;;9.70;3.05;;;;;;;;;;5030894;28;20536;-61
2022/05/31 09:25:32;;;;;;;5.97;1.63;;;;;;;;;;5027516;28;20561;-61
2022/05/31 09:28:00;;;;;;;3.72;0.63;;;;;;;;;;5027805;28;20041;-61
2022/05/31 09:30:34;;;;;;;24.42;3.80;;;;;;;;;;5027566;28;20041;-62
2022/05/31 09:33:04;;;;;;;8.07;1.67;;;;;;;;;;5027275;28;20494;-62
2022/05/31 09:35:50;;;;;;;15.88;5.22;;;;;;;;;;5029802;28;20477;-61
2022/05/31 09:38:16;;;;;;;5.18;0.85;;;;;;;;;;5028473;28;20052;-61
2022/05/31 09:40:45;;;;;;;6.85;3.03;;;;;;;;;;5028182;28;20049;-61
2022/05/31 09:43:30;;;;;;;15.85;3.97;;;;;;;;;;5026066;28;20089;-61
2022/05/31 09:46:08;;;;;;;4.45;2.85;;;;;;;;;;5027873;28;20049;-62
2022/05/31 09:48:46;;;;;;;10.73;1.50;;;;;;;;;;5026922;28;20485;-61
2022/05/31 09:51:30;;;;;;;8.02;3.40;;;;;;;;;;5027685;28;20044;-62
2022/05/31 09:57:13;;;;;;;8.50;3.05;;;;;;;;;;5025972;28;20042;-61
2022/05/31 10:00:14;;;;;;;16.15;4.90;;;;;;;;;;5034750;28;20147;-62
2022/05/31 10:03:04;;;;;;;5.28;1.98;;;;;;;;;;5045201;28;20080;-62
2022/05/31 10:05:31;;;;;;;14.10;1.70;;;;;;;;;;5046274;28;20053;-62
2022/05/31 10:07:58;;;;;;;4.72;2.30;;;;;;;;;;5047924;28;20522;-61
2022/05/31 10:10:27;;;;;;;11.15;2.40;;;;;;;;;;5048003;28;20059;-61
2022/05/31 10:13:01;;;;;;;18.42;2.38;;;;;;;;;;5053023;28;20041;-62
2022/05/31 10:15:31;;;;;;;30.85;3.20;;;;;;;;;;5048592;28;20044;-61
2022/05/31 10:18:01;;;;;;;11.85;1.42;;;;;;;;;;5048220;28;20053;-61
2022/05/31 10:20:29;;;;;;;18.55;1.98;;;;;;;;;;5035059;28;20045;-61
2022/05/31 10:23:00;;;;;;;14.98;1.70;;;;;;;;;;5050882;28;20063;-61
2022/05/31 10:25:57;;;;;;;12.52;1.48;;;;;;;;;;5011439;28;20506;-61
2022/05/31 10:28:32;;;;;;;1.27;0.35;;;;;;;;;;5008992;28;20048;-61
2022/05/31 10:31:13;;;;;;;7.45;0.88;;;;;;;;;;5000245;28;20037;-61
2022/05/31 10:33:40;;;;;;;8.27;1.00;;;;;;;;;;5008393;28;20049;-61
2022/05/31 10:36:16;;;;;;;19.75;2.13;;;;;;;;;;4992851;28;20066;-61
2022/05/31 10:38:44;;;;;;;20.88;2.22;;;;;;;;;;4989853;28;20101;-62
2022/05/31 10:41:22;;;;;;;7.07;0.90;;;;;;;;;;4974931;28;20046;-62
2022/05/31 10:44:21;;;;;;;8.13;0.90;;;;;;;;;;4974940;28;20101;-62
2022/05/31 10:46:50;;;;;;;6.05;0.80;;;;;;;;;;4965747;28;20109;-62
2022/05/31 10:49:18;;;;;;;10.07;2.00;;;;;;;;;;4973389;28;20062;-62
2022/05/31 10:51:44;;;;;;;6.00;1.10;;;;;;;;;;4979772;28;20039;-62
2022/05/31 10:54:19;;;;;;;5.68;0.75;;;;;;;;;;4980547;28;20557;-62
2022/05/31 10:56:46;;;;;;;7.78;1.13;;;;;;;;;;4989085;28;20518;-62
2022/05/31 10:59:16;;;;;;;10.43;1.30;;;;;;;;;;4974057;28;20516;-61
2022/05/31 11:01:51;;;;;;;22.90;2.70;;;;;;;;;;4982497;28;20061;-62
2022/05/31 11:04:23;;;;;;;4.18;0.55;;;;;;;;;;5026787;28;20049;-62
2022/05/31 11:06:53;;;;;;;4.97;0.70;;;;;;;;;;5030241;28;20486;-62
2022/05/31 11:12:27;;;;;;;3.78;0.52;;;;;;;;;;5030153;28;20038;-62
2022/05/31 11:15:26;;;;;;;8.32;1.50;;;;;;;;;;5030203;28;20053;-62
2022/05/31 11:17:52;;;;;;;2.38;0.50;;;;;;;;;;4991414;28;20102;-62
2022/05/31 11:20:19;;;;;;;2.92;0.60;;;;;;;;;;5011833;28;20445;-61
2022/05/31 11:22:48;;;;;;;4.80;0.65;;;;;;;;;;5007895;28;20066;-62
2022/05/31 11:25:25;;;;;;;4.00;0.60;;;;;;;;;;5007889;28;20129;-62
2022/05/31 11:28:15;;;;;;;22.13;2.35;;;;;;;;;;5007522;28;20561;-62
2022/05/31 11:30:47;;;;;;;17.63;1.98;;;;;;;;;;4997161;28;20057;-62
2022/05/31 11:33:32;;;;;;;9.80;1.10;;;;;;;;;;5007836;28;20044;-62
2022/05/31 11:36:18;;;;;;;2.15;0.40;;;;;;;;;;5007769;28;20046;-62
2022/05/31 11:38:53;;;;;;;5.25;0.65;;;;;;;;;;5008416;28;20074;-61
2022/05/31 11:41:41;;;;;;;9.48;1.05;;;;;;;;;;5008289;28;20512;-62
2022/05/31 11:44:19;;;;;;;14.07;1.55;;;;;;;;;;5011398;28;20057;-62
2022/05/31 11:47:04;;;;;;;4.28;0.60;;;;;;;;;;5012212;28;20607;-62
2022/05/31 11:49:49;;;;;;;9.70;1.13;;;;;;;;;;5007736;28;20539;-62
2022/05/31 11:52:37;;;;;;;3.10;0.50;;;;;;;;;;5007353;28;20137;-62
2022/05/31 11:57:54;;;;;;;10.60;1.30;;;;;;;;;;5028996;28;20037;-62
2022/05/31 12:00:20;;;;;;;9.23;1.05;;;;;;;;;;5029164;28;20045;-61
2022/05/31 12:02:51;;;;;;;14.35;1.50;;;;;;;;;;5029148;28;20050;-61
2022/05/31 12:05:21;;;;;;;8.07;0.90;;;;;;;;;;5030488;28;20045;-62
2022/05/31 12:07:52;;;;;;;13.95;1.55;;;;;;;;;;5030376;28;20045;-62
2022/05/31 12:10:26;;;;;;;16.88;1.80;;;;;;;;;;5028910;28;20400;-62
2022/05/31 12:12:55;;;;;;;4.28;0.57;;;;;;;;;;5029096;28;20061;-62
2022/05/31 12:15:28;;;;;;;5.47;0.73;;;;;;;;;;5029010;28;20044;-62
2022/05/31 12:17:58;;;;;;;5.15;0.63;;;;;;;;;;5029034;28;20260;-62
2022/05/31 12:20:30;;;;;;;14.65;1.60;;;;;;;;;;5032552;28;20537;-62
2022/05/31 12:23:03;;;;;;;8.20;1.07;;;;;;;;;;5030646;28;20494;-62
2022/05/31 12:25:56;;;;;;;8.75;0.98;;;;;;;;;;5029490;28;20053;-61
2022/05/31 12:28:29;;;;;;;20.42;2.05;;;;;;;;;;5027547;28;20476;-62
2022/05/31 12:31:15;;;;;;;5.47;0.68;;;;;;;;;;5033004;28;20042;-62
2022/05/31 12:33:43;;;;;;;2.95;0.50;;;;;;;;;;5027987;28;20045;-61
2022/05/31 12:36:12;;;;;;;10.18;1.13;;;;;;;;;;5027330;28;20502;-62
2022/05/31 12:38:54;;;;;;;17.20;2.00;;;;;;;;;;5029201;28;20048;-61
2022/05/31 12:41:41;;;;;;;11.73;1.25;;;;;;;;;;5044453;28;20076;-62
2022/05/31 12:44:10;;;;;;;13.20;1.70;;;;;;;;;;5032272;28;20049;-62
2022/05/31 12:46:38;;;;;;;5.13;0.70;;;;;;;;;;5028460;28;20402;-62
2022/05/31 12:49:08;;;;;;;6.50;0.73;;;;;;;;;;5032028;28;20127;-62
2022/05/31 12:51:34;;;;;;;3.67;0.52;;;;;;;;;;5028252;28;20504;-61
2022/05/31 12:54:03;;;;;;;9.65;1.05;;;;;;;;;;5028634;28;20045;-61
2022/05/31 12:56:29;;;;;;;12.57;1.35;;;;;;;;;;5031436;28;20073;-61
2022/05/31 12:58:56;;;;;;;5.28;0.70;;;;;;;;;;5029981;28;20540;-62
2022/05/31 13:01:23;;;;;;;12.25;1.35;;;;;;;;;;5028089;28;20034;-62
2022/05/31 13:03:49;;;;;;;8.98;1.05;;;;;;;;;;5027878;28;20050;-62
2022/05/31 13:06:28;;;;;;;6.95;1.40;;;;;;;;;;5028619;28;20041;-61
2022/05/31 13:08:56;;;;;;;11.93;1.25;;;;;;;;;;5031439;28;20136;-61
2022/05/31 13:20:13;;;;;;;5.97;0.85;;;;;;;;;;5030167;28;20103;-61
2022/05/31 13:22:44;;;;;;;7.15;1.13;;;;;;;;;;5027269;28;20057;-61
2022/05/31 13:25:16;;;;;;;2.83;0.45;;;;;;;;;;5027565;28;20045;-61
2022/05/31 13:27:48;;;;;;;5.20;0.60;;;;;;;;;;5027627;28;20034;-62
2022/05/31 13:30:17;;;;;;;3.90;0.50;;;;;;;;;;5015782;28;20033;-62
2022/05/31 13:32:44;;;;;;;7.70;0.90;;;;;;;;;;5028527;28;20486;-61
2022/05/31 13:35:15;;;;;;;9.32;1.05;;;;;;;;;;5031564;28;20045;-62
2022/05/31 13:37:59;;;;;;;12.77;1.35;;;;;;;;;;5026426;28;20484;-61
2022/05/31 13:40:31;;;;;;;20.90;2.15;;;;;;;;;;5027276;28;20095;-62
2022/05/31 13:43:00;;;;;;;5.35;0.70;;;;;;;;;;5026310;28;20124;-62
2022/05/31 13:45:28;;;;;;;5.93;0.77;;;;;;;;;;5026710;28;20043;-62
2022/05/31 13:48:12;;;;;;;6.85;0.82;;;;;;;;;;5027384;28;20145;-62
2022/05/31 13:50:50;;;;;;;19.55;1.98;;;;;;;;;;5029377;28;20072;-62
2022/05/31 13:53:16;;;;;;;19.65;2.08;;;;;;;;;;5031799;28;20045;-62
2022/05/31 13:55:43;;;;;;;27.35;2.80;;;;;;;;;;5027135;28;20132;-62
2022/05/31 13:58:13;;;;;;;25.08;2.65;;;;;;;;;;5027456;28;20045;-61
2022/05/31 14:00:44;;;;;;;4.90;0.60;;;;;;;;;;5029987;28;20049;-62
2022/05/31 14:03:27;;;;;;;25.65;2.55;;;;;;;;;;5027226;28;20045;-61
2022/05/31 14:06:00;;;;;;;22.42;2.28;;;;;;;;;;5027192;28;20125;-61
2022/05/31 14:08:39;;;;;;;17.52;1.88;;;;;;;;;;5030860;28;20512;-61
2022/05/31 14:11:13;;;;;;;20.65;2.20;;;;;;;;;;5029188;28;20490;-62
2022/05/31 14:13:40;;;;;;;4.53;0.52;;;;;;;;;;5027417;28;20084;-62
2022/05/31 14:16:27;;;;;;;4.90;0.60;;;;;;;;;;5030519;28;20068;-62
2022/05/31 14:18:56;;;;;;;5.03;0.70;;;;;;;;;;5022875;28;20528;-61
2022/05/31 14:21:23;;;;;;;17.30;2.45;;;;;;;;;;5026991;28;20080;-62
2022/05/31 14:23:50;;;;;;;16.38;1.77;;;;;;;;;;5027005;28;20058;-61
2022/05/31 14:26:17;;;;;;;1.88;0.40;;;;;;;;;;5027882;28;20113;-62
2022/05/31 14:29:02;;;;;;;3.00;0.38;;;;;;;;;;5026380;28;20096;-62
2022/05/31 14:31:29;;;;;;;5.97;0.75;;;;;;;;;;5029058;28;20121;-62
2022/05/31 14:34:00;;;;;;;9.88;1.13;;;;;;;;;;5019550;28;20398;-61
2022/05/31 14:36:31;;;;;;;19.63;2.05;;;;;;;;;;5026713;28;20041;-62
2022/05/31 14:38:57;;;;;;;4.35;0.63;;;;;;;;;;5012218;28;20046;-62
2022/05/31 14:41:31;;;;;;;16.45;1.73;;;;;;;;;;5031317;28;20041;-62
2022/05/31 14:44:02;;;;;;;7.82;0.90;;;;;;;;;;5028581;28;20045;-62
2022/05/31 14:46:31;;;;;;;7.50;0.82;;;;;;;;;;5026771;28;20041;-61
2022/05/31 14:49:21;;;;;;;9.38;1.13;;;;;;;;;;5026294;28;20084;-62
2022/05/31 14:51:50;;;;;;;8.27;1.13;;;;;;;;;;5023484;28;20128;-61
2022/05/31 14:54:35;;;;;;;18.92;1.95;;;;;;;;;;5026837;28;20121;-62
2022/05/31 14:57:09;;;;;;;6.43;0.77;;;;;;;;;;5029011;28;20117;-61
2022/05/31 14:59:36;;;;;;;21.25;2.30;;;;;;;;;;5032599;28;20129;-61
2022/05/31 15:02:03;;;;;;;15.13;1.65;;;;;;;;;;5032945;28;20044;-61
2022/05/31 15:04:34;;;;;;;15.50;1.63;;;;;;;;;;5029602;28;20069;-61
2022/05/31 15:07:03;;;;;;;5.97;0.65;;;;;;;;;;5029853;28;20069;-61
2022/05/31 15:09:33;;;;;;;9.02;1.08;;;;;;;;;;5030083;28;20038;-61
2022/05/31 15:20:39;;;;;;;25.45;2.58;;;;;;;;;;5030284;28;20080;-61
2022/05/31 15:23:07;;;;;;;15.00;1.55;;;;;;;;;;5032076;28;20049;-60
2022/05/31 15:25:34;;;;;;;12.27;1.30;;;;;;;;;;5031461;28;20048;-60
2022/05/31 15:28:01;;;;;;;5.60;1.65;;;;;;;;;;5032448;28;20291;-59
2022/05/31 15:30:27;;;;;;;7.03;0.80;;;;;;;;;;5031520;28;20037;-59
2022/05/31 15:33:14;;;;;;;8.30;0.90;;;;;;;;;;5028877;28;20045;-60
2022/05/31 15:35:40;;;;;;;12.60;1.40;;;;;;;;;;5030194;28;20045;-60
2022/05/31 15:38:30;;;;;;;21.88;2.90;;;;;;;;;;5030287;28;20112;-60
2022/05/31 15:41:00;;;;;;;18.27;1.85;;;;;;;;;;5031085;28;20046;-61
2022/05/31 15:46:12;;;;;;;14.27;2.30;;;;;;;;;;5029668;28;20037;-61
2022/05/31 15:48:38;;;;;;;11.43;1.83;;;;;;;;;;5028964;28;20045;-61
2022/05/31 15:51:05;;;;;;;12.00;1.25;;;;;;;;;;5029088;28;20044;-61
2022/05/31 15:53:32;;;;;;;13.55;1.50;;;;;;;;;;5033692;28;20049;-61
2022/05/31 15:55:58;;;;;;;10.27;1.17;;;;;;;;;;5030510;28;20037;-61
2022/05/31 15:58:25;;;;;;;4.20;0.70;;;;;;;;;;5029393;28;20103;-61
2022/05/31 16:00:52;;;;;;;14.82;1.58;;;;;;;;;;5028461;28;20398;-61
2022/05/31 16:03:19;;;;;;;18.25;1.88;;;;;;;;;;5027446;28;20076;-61